Aeroporto :
LOGIN :

Iscrizione | Disclaimer

   EN    FR    IT 

 










Sommario :    VFR   VFR Marginale   IFR   IFR Intensivo   IFR Molto Intensivo
Visibilità : 
Base nubi : 
>= 8 km
>= 3000ft
5 / 8 km
1000 / 3000 ft
1500m / 5 km
500 / 1000 ft
800 / 1500m
200 / 500 ft
< 800m
< 200 ft
Simboli :   Temporali  Nebbia  Neve Forte  Precipitazioni Forti  Vento > 20 kt
SIGMETs :   Varie  Temporali  Ghiacco  Turbolenza  Onda orograficha  Ceneri Vulcaniche






- Altitudine del aeroporto : 40 ft
- Codice IATA : RMI


LIPR - Federico Fellini Int. Rimini

ULTIMO METAR :
  • 200750Z 05003KT 360V100 CAVOK 23/16 Q1016

METARs OBSOLETI :
  • 200720Z VRB01KT CAVOK 21/16 Q1016
  • 200650Z VRB01KT CAVOK 19/15 Q1016
  • 200620Z VRB02KT CAVOK 17/15 Q1016
  • 200550Z AUTO 24002KT 9999 FEW140/// 16/15 Q1016
  • 200520Z AUTO 26002KT 9999 NCD 16/14 Q1016

TAF TAF LIPR
Valido dal 20 a 06 ore il 20 a 15 ore UTC


200500Z 2006/2015 VRB05KT 9999 SCT050
BECMG 2008/2010 04010KT
TEMPO 2012/2015 RA



MetMap, La meteo Aeronautica in un colpo d'occhio ! - Copyright ORBIFLY Dicembre 2007 - Disclaimer

ORBIFLY MET'MAP TEAM :

Programmazione e sviluppo : Alexandra Zaïnal
Concezione : Baudouin d'Aumeries
Aiuto per la programmazione : Marc-Olivier Méhu
Supporto tecnico e logistico : Manuel Goepfert
Aiuto per la traduzione : Arnaldo La Scala

Contatto : metmap@orbifly.com




FONTI E CREDITI :

   NOAA